Time;durP1;ratioP1;P1;durP2;ratioP2;P2;SDS_P1;SDS_P2;PMS_P1;PMS_P2;Temp;Humidity;BMP_temperature;BMP_pressure;BME280_temperature;BME280_humidity;BME280_pressure;Samples;Min_cycle;Max_cycle;Signal;HPM_P1;HPM_P2
2022/06/16 00:00:46;;;;;;;3.50;2.92;;;;;;;;;;5049337;28;20028;-57
2022/06/16 00:03:13;;;;;;;4.43;3.10;;;;;;;;;;5045207;28;20356;-57
2022/06/16 00:05:41;;;;;;;3.63;2.63;;;;;;;;;;5044036;28;20025;-57
2022/06/16 00:08:07;;;;;;;4.43;2.55;;;;;;;;;;5040514;28;20025;-57
2022/06/16 00:10:34;;;;;;;4.30;2.70;;;;;;;;;;5047869;28;20029;-53
2022/06/16 00:13:00;;;;;;;3.53;2.78;;;;;;;;;;5048838;28;20481;-57
2022/06/16 00:15:27;;;;;;;2.88;2.40;;;;;;;;;;5051589;28;20525;-57
2022/06/16 00:17:54;;;;;;;3.72;2.45;;;;;;;;;;5050943;28;20033;-57
2022/06/16 00:20:20;;;;;;;3.28;2.97;;;;;;;;;;5048040;28;20021;-57
2022/06/16 00:22:46;;;;;;;2.72;2.20;;;;;;;;;;5043764;28;20033;-57
2022/06/16 00:25:12;;;;;;;4.53;3.05;;;;;;;;;;5034642;28;20033;-57
2022/06/16 00:27:39;;;;;;;2.90;2.58;;;;;;;;;;5044371;28;20034;-56
2022/06/16 00:30:06;;;;;;;3.40;2.50;;;;;;;;;;5037921;28;20489;-57
2022/06/16 00:32:32;;;;;;;2.90;2.38;;;;;;;;;;5044712;28;20424;-57
2022/06/16 00:34:58;;;;;;;4.63;2.75;;;;;;;;;;5048643;28;20025;-57
2022/06/16 00:37:24;;;;;;;3.22;2.28;;;;;;;;;;5045082;28;20025;-57
2022/06/16 00:39:50;;;;;;;3.55;2.40;;;;;;;;;;5050189;28;20065;-56
2022/06/16 00:42:21;;;;;;;4.32;3.45;;;;;;;;;;5050853;28;20028;-57
2022/06/16 00:44:51;;;;;;;2.87;2.53;;;;;;;;;;5046360;28;20505;-57
2022/06/16 00:47:19;;;;;;;4.65;2.40;;;;;;;;;;5051053;28;20275;-57
2022/06/16 00:49:45;;;;;;;3.38;2.17;;;;;;;;;;5046163;28;20065;-58
2022/06/16 00:52:13;;;;;;;2.58;2.38;;;;;;;;;;5039507;28;20105;-57
2022/06/16 00:54:44;;;;;;;2.88;2.30;;;;;;;;;;5042172;28;20032;-57
2022/06/16 00:57:14;;;;;;;3.03;2.30;;;;;;;;;;5039434;28;20436;-57
2022/06/16 00:59:41;;;;;;;4.25;2.58;;;;;;;;;;5033815;28;20100;-56
2022/06/16 01:02:08;;;;;;;3.72;2.20;;;;;;;;;;5051455;28;20032;-57
2022/06/16 01:04:52;;;;;;;4.05;2.42;;;;;;;;;;5050905;28;20505;-52
2022/06/16 01:07:39;;;;;;;3.25;2.40;;;;;;;;;;5051235;28;20024;-57
2022/06/16 01:10:06;;;;;;;2.22;2.03;;;;;;;;;;5050999;28;20068;-57
2022/06/16 01:15:42;;;;;;;2.95;2.55;;;;;;;;;;5040602;28;20117;-54
2022/06/16 01:18:16;;;;;;;3.53;2.47;;;;;;;;;;5052570;28;20029;-57
2022/06/16 01:20:43;;;;;;;2.45;2.00;;;;;;;;;;5055124;28;20039;-57
2022/06/16 01:23:09;;;;;;;2.95;2.38;;;;;;;;;;5036170;28;20036;-57
2022/06/16 01:25:54;;;;;;;3.65;2.20;;;;;;;;;;5045851;28;20025;-55
2022/06/16 01:28:20;;;;;;;3.28;2.10;;;;;;;;;;5054720;28;20116;-57
2022/06/16 01:31:04;;;;;;;2.40;1.92;;;;;;;;;;5044838;28;20111;-56
2022/06/16 01:33:55;;;;;;;2.63;2.17;;;;;;;;;;5037301;28;20656;-57
2022/06/16 01:36:45;;;;;;;2.73;2.50;;;;;;;;;;5047684;28;20085;-57
2022/06/16 01:39:15;;;;;;;3.10;2.22;;;;;;;;;;5041848;28;20506;-57
2022/06/16 01:41:45;;;;;;;2.63;2.20;;;;;;;;;;5048687;28;20060;-57
2022/06/16 01:44:15;;;;;;;3.20;2.30;;;;;;;;;;5047500;28;20035;-57
2022/06/16 01:46:43;;;;;;;3.28;2.60;;;;;;;;;;5042530;28;20395;-57
2022/06/16 01:49:18;;;;;;;3.25;2.55;;;;;;;;;;5047799;28;20116;-57
2022/06/16 01:51:50;;;;;;;3.05;2.60;;;;;;;;;;5045440;28;20088;-57
2022/06/16 01:54:16;;;;;;;2.38;2.10;;;;;;;;;;5052633;28;20036;-57
2022/06/16 01:56:55;;;;;;;3.25;2.33;;;;;;;;;;5049041;28;20038;-57
2022/06/16 01:59:25;;;;;;;3.65;2.38;;;;;;;;;;5043367;28;20087;-57
2022/06/16 02:01:53;;;;;;;4.65;2.40;;;;;;;;;;5046704;28;20105;-52
2022/06/16 02:04:31;;;;;;;2.70;2.15;;;;;;;;;;5050194;28;20452;-57
2022/06/16 02:07:00;;;;;;;4.95;2.40;;;;;;;;;;5052986;28;20183;-57
2022/06/16 02:09:30;;;;;;;2.75;2.22;;;;;;;;;;5053163;28;20090;-57
2022/06/16 02:11:58;;;;;;;2.63;2.30;;;;;;;;;;5051712;28;20835;-57
2022/06/16 02:14:24;;;;;;;3.95;2.10;;;;;;;;;;5053408;28;20029;-57
2022/06/16 02:16:50;;;;;;;2.88;2.33;;;;;;;;;;5050568;28;20029;-58
2022/06/16 02:19:18;;;;;;;4.65;2.10;;;;;;;;;;5042065;28;20040;-57
2022/06/16 02:21:46;;;;;;;2.50;2.30;;;;;;;;;;5046107;28;20071;-57
2022/06/16 02:24:13;;;;;;;2.38;2.00;;;;;;;;;;5043801;28;20025;-57
2022/06/16 02:26:39;;;;;;;2.92;2.25;;;;;;;;;;5053141;28;20083;-55
2022/06/16 02:29:26;;;;;;;2.90;1.98;;;;;;;;;;5052688;28;20059;-58
2022/06/16 02:32:04;;;;;;;3.58;2.28;;;;;;;;;;5045769;28;20044;-57
2022/06/16 02:34:36;;;;;;;2.20;1.80;;;;;;;;;;5042856;28;20024;-58
2022/06/16 02:37:05;;;;;;;3.53;2.00;;;;;;;;;;5046236;28;20026;-58
2022/06/16 02:39:39;;;;;;;2.70;1.95;;;;;;;;;;5043906;28;20060;-58
2022/06/16 02:42:16;;;;;;;2.85;2.13;;;;;;;;;;5047821;28;20104;-58
2022/06/16 02:44:54;;;;;;;3.55;2.42;;;;;;;;;;5045290;28;20060;-57
2022/06/16 02:47:48;;;;;;;3.75;2.15;;;;;;;;;;5049042;28;20040;-58
2022/06/16 02:50:24;;;;;;;3.20;1.65;;;;;;;;;;5050484;28;20017;-57
2022/06/16 02:52:56;;;;;;;2.92;2.15;;;;;;;;;;5052117;28;20021;-56
2022/06/16 02:55:35;;;;;;;2.10;1.90;;;;;;;;;;5052609;28;20058;-57
2022/06/16 02:58:03;;;;;;;2.80;1.95;;;;;;;;;;5046757;28;20021;-57
2022/06/16 03:00:31;;;;;;;2.63;1.70;;;;;;;;;;5052588;28;20025;-58
2022/06/16 03:02:57;;;;;;;4.75;2.13;;;;;;;;;;5050160;28;20099;-58
2022/06/16 03:05:23;;;;;;;2.22;1.95;;;;;;;;;;5041556;28;20518;-58
2022/06/16 03:07:50;;;;;;;2.72;1.80;;;;;;;;;;5052213;28;20025;-57
2022/06/16 03:10:50;;;;;;;2.15;1.70;;;;;;;;;;5052294;28;20543;-57
2022/06/16 03:13:05;;;;;;;2.65;1.90;;;;;;;;;;5054482;28;20037;-57
2022/06/16 03:15:31;;;;;;;2.17;1.90;;;;;;;;;;5052399;28;20548;-57
2022/06/16 03:17:57;;;;;;;3.22;2.42;;;;;;;;;;5051874;28;20028;-57
2022/06/16 03:20:23;;;;;;;4.03;2.10;;;;;;;;;;5049368;28;20017;-57
2022/06/16 03:22:49;;;;;;;4.43;1.80;;;;;;;;;;5055951;28;20036;-57
2022/06/16 03:25:15;;;;;;;2.65;2.00;;;;;;;;;;5050878;28;20021;-56
2022/06/16 03:27:41;;;;;;;2.10;1.65;;;;;;;;;;5035579;28;20033;-55
2022/06/16 03:30:07;;;;;;;2.90;1.75;;;;;;;;;;5045645;28;20378;-57
2022/06/16 03:32:33;;;;;;;2.58;2.30;;;;;;;;;;5051302;28;20021;-57
2022/06/16 03:34:59;;;;;;;2.85;2.20;;;;;;;;;;5046102;28;20025;-57
2022/06/16 03:37:25;;;;;;;3.33;2.63;;;;;;;;;;5047174;28;20029;-58
2022/06/16 03:39:51;;;;;;;3.40;2.35;;;;;;;;;;5057002;28;20024;-57
2022/06/16 03:42:17;;;;;;;4.18;2.20;;;;;;;;;;5060600;28;20028;-58
2022/06/16 03:44:43;;;;;;;4.25;2.60;;;;;;;;;;5054587;28;20076;-54
2022/06/16 03:47:09;;;;;;;4.63;2.50;;;;;;;;;;5054916;28;20029;-57
2022/06/16 03:49:35;;;;;;;3.55;2.38;;;;;;;;;;5044579;28;20028;-58
2022/06/16 03:52:01;;;;;;;5.80;2.35;;;;;;;;;;5061775;28;20686;-57
2022/06/16 03:54:27;;;;;;;5.30;2.30;;;;;;;;;;5048023;28;20033;-58
2022/06/16 03:56:53;;;;;;;7.45;2.30;;;;;;;;;;5051650;28;20016;-57
2022/06/16 03:59:21;;;;;;;2.80;1.92;;;;;;;;;;5052275;28;20025;-57
2022/06/16 04:01:47;;;;;;;4.88;2.33;;;;;;;;;;5049459;28;20036;-57
2022/06/16 04:04:13;;;;;;;2.78;2.28;;;;;;;;;;5053470;28;20025;-57
2022/06/16 04:06:39;;;;;;;2.40;2.20;;;;;;;;;;5056594;28;20047;-57
2022/06/16 04:09:06;;;;;;;5.10;2.60;;;;;;;;;;5056718;28;20029;-58
2022/06/16 04:11:32;;;;;;;3.75;2.75;;;;;;;;;;5054304;28;20029;-56
2022/06/16 04:14:00;;;;;;;3.22;2.50;;;;;;;;;;5053825;28;20523;-57
2022/06/16 04:16:30;;;;;;;3.50;2.63;;;;;;;;;;5058268;28;20478;-57
2022/06/16 04:18:57;;;;;;;6.22;3.03;;;;;;;;;;5056963;28;20036;-58
2022/06/16 04:21:23;;;;;;;3.55;2.45;;;;;;;;;;5055121;28;20486;-57
2022/06/16 04:23:49;;;;;;;3.75;2.40;;;;;;;;;;5056133;28;20024;-57
2022/06/16 04:26:15;;;;;;;5.15;2.42;;;;;;;;;;5064905;28;20020;-57
2022/06/16 04:28:41;;;;;;;4.25;2.60;;;;;;;;;;5045466;28;20030;-55
2022/06/16 04:31:07;;;;;;;6.07;2.72;;;;;;;;;;5052017;28;20082;-58
2022/06/16 04:33:33;;;;;;;2.95;2.25;;;;;;;;;;5064479;28;20100;-58
2022/06/16 04:35:59;;;;;;;2.72;2.20;;;;;;;;;;5056471;28;20048;-57
2022/06/16 04:38:26;;;;;;;3.72;2.15;;;;;;;;;;5057054;28;20110;-58
2022/06/16 04:40:52;;;;;;;9.23;2.20;;;;;;;;;;5053369;28;20029;-57
2022/06/16 04:43:19;;;;;;;5.03;2.70;;;;;;;;;;5054584;28;20479;-58
2022/06/16 04:45:45;;;;;;;3.85;2.50;;;;;;;;;;5055315;28;20079;-54
2022/06/16 04:48:11;;;;;;;4.43;2.60;;;;;;;;;;5063900;28;20086;-57
2022/06/16 04:50:38;;;;;;;4.22;2.85;;;;;;;;;;5053441;28;20040;-57
2022/06/16 04:53:04;;;;;;;4.20;2.42;;;;;;;;;;5053100;28;20681;-57
2022/06/16 04:55:30;;;;;;;3.80;2.50;;;;;;;;;;5058189;28;20024;-58
2022/06/16 04:57:57;;;;;;;5.35;3.63;;;;;;;;;;5066068;28;20091;-57
2022/06/16 05:00:23;;;;;;;5.28;2.45;;;;;;;;;;5057938;28;20025;-58
2022/06/16 05:02:49;;;;;;;4.35;3.00;;;;;;;;;;5067671;28;20081;-57
2022/06/16 05:05:16;;;;;;;2.85;2.33;;;;;;;;;;5065273;28;20048;-57
2022/06/16 05:07:42;;;;;;;6.10;2.60;;;;;;;;;;5055724;28;20031;-57
2022/06/16 05:10:08;;;;;;;4.10;2.53;;;;;;;;;;5043534;28;20056;-57
2022/06/16 05:12:34;;;;;;;5.68;3.05;;;;;;;;;;5054303;28;20025;-57
2022/06/16 05:15:00;;;;;;;3.75;2.90;;;;;;;;;;5063591;28;20040;-58
2022/06/16 05:17:26;;;;;;;4.38;2.70;;;;;;;;;;5058789;28;20378;-57
2022/06/16 05:19:52;;;;;;;5.20;3.00;;;;;;;;;;5057952;28;20016;-57
2022/06/16 05:22:19;;;;;;;5.53;2.42;;;;;;;;;;5051657;28;20035;-58
2022/06/16 05:24:45;;;;;;;9.88;3.60;;;;;;;;;;5049975;28;20040;-52
2022/06/16 05:27:11;;;;;;;4.57;2.58;;;;;;;;;;5064706;28;20028;-56
2022/06/16 05:29:37;;;;;;;4.07;2.75;;;;;;;;;;5046965;28;20040;-58
2022/06/16 05:32:03;;;;;;;3.83;2.35;;;;;;;;;;5046917;28;20112;-57
2022/06/16 05:34:29;;;;;;;4.88;3.13;;;;;;;;;;5052343;28;20156;-58
2022/06/16 05:36:55;;;;;;;4.30;2.70;;;;;;;;;;5056397;28;20436;-57
2022/06/16 05:39:21;;;;;;;4.15;2.38;;;;;;;;;;5059448;28;20025;-57
2022/06/16 05:41:47;;;;;;;4.45;2.80;;;;;;;;;;5051247;28;20111;-54
2022/06/16 05:44:13;;;;;;;4.38;3.13;;;;;;;;;;5048807;28;20025;-57
2022/06/16 05:46:40;;;;;;;4.45;2.80;;;;;;;;;;5052144;28;20055;-57
2022/06/16 05:49:06;;;;;;;4.35;2.40;;;;;;;;;;5055538;28;20029;-57
2022/06/16 05:51:32;;;;;;;5.78;2.30;;;;;;;;;;5053933;28;20025;-58
2022/06/16 05:53:58;;;;;;;8.20;2.90;;;;;;;;;;5052773;28;20013;-57
2022/06/16 05:56:24;;;;;;;3.90;2.42;;;;;;;;;;5043743;28;20040;-57
2022/06/16 05:58:50;;;;;;;3.15;2.63;;;;;;;;;;5052971;28;20033;-56
2022/06/16 06:01:16;;;;;;;3.88;2.60;;;;;;;;;;5052619;28;20138;-58
2022/06/16 06:03:43;;;;;;;6.63;3.13;;;;;;;;;;5050004;28;20025;-57
2022/06/16 06:06:09;;;;;;;3.35;2.60;;;;;;;;;;5051873;28;20609;-57
2022/06/16 06:17:03;;;;;;;4.95;2.67;;;;;;;;;;5049213;28;21309;-57
2022/06/16 06:19:31;;;;;;;3.58;2.55;;;;;;;;;;5054526;28;20093;-57
2022/06/16 06:22:02;;;;;;;4.13;2.67;;;;;;;;;;5046520;28;20037;-57
2022/06/16 06:24:45;;;;;;;3.00;2.30;;;;;;;;;;5049562;28;20017;-57
2022/06/16 06:27:11;;;;;;;4.78;3.00;;;;;;;;;;5051535;28;20521;-57
2022/06/16 06:29:37;;;;;;;3.88;2.70;;;;;;;;;;5052298;28;20056;-58
2022/06/16 06:32:03;;;;;;;4.50;2.33;;;;;;;;;;5051932;28;20055;-57
2022/06/16 06:34:29;;;;;;;4.03;2.45;;;;;;;;;;5053004;28;20070;-57
2022/06/16 06:36:56;;;;;;;4.28;3.22;;;;;;;;;;5052437;28;20032;-58
2022/06/16 06:39:22;;;;;;;3.65;2.58;;;;;;;;;;5055584;28;20405;-58
2022/06/16 06:41:49;;;;;;;3.65;2.50;;;;;;;;;;5051280;28;20036;-55
2022/06/16 06:44:15;;;;;;;5.00;2.55;;;;;;;;;;5056026;28;20025;-57
2022/06/16 06:46:41;;;;;;;4.07;2.35;;;;;;;;;;5055047;28;20478;-57
2022/06/16 06:49:07;;;;;;;3.75;2.70;;;;;;;;;;5051810;28;20112;-58
2022/06/16 06:51:34;;;;;;;4.70;2.78;;;;;;;;;;5053988;28;20112;-58
2022/06/16 06:54:00;;;;;;;3.78;2.55;;;;;;;;;;5051269;28;20032;-57
2022/06/16 06:56:28;;;;;;;4.07;2.20;;;;;;;;;;5053274;28;20048;-58
2022/06/16 06:58:55;;;;;;;4.47;2.45;;;;;;;;;;5057574;28;20021;-57
2022/06/16 07:01:21;;;;;;;2.75;2.25;;;;;;;;;;5055369;28;20568;-57
2022/06/16 07:03:49;;;;;;;2.92;2.13;;;;;;;;;;5055255;28;20025;-58
2022/06/16 07:06:16;;;;;;;3.15;2.47;;;;;;;;;;5053867;28;20064;-58
2022/06/16 07:08:42;;;;;;;4.60;2.22;;;;;;;;;;5051842;28;20032;-58
2022/06/16 07:11:08;;;;;;;3.05;2.30;;;;;;;;;;5053729;28;20021;-58
2022/06/16 07:13:34;;;;;;;4.28;2.42;;;;;;;;;;5051034;28;20377;-58
2022/06/16 07:16:00;;;;;;;5.40;2.75;;;;;;;;;;5065152;28;20342;-58
2022/06/16 07:18:26;;;;;;;4.10;2.75;;;;;;;;;;5059907;28;20086;-58
2022/06/16 07:20:52;;;;;;;3.47;2.30;;;;;;;;;;5055140;28;20105;-55
2022/06/16 07:23:21;;;;;;;3.78;2.72;;;;;;;;;;5050736;28;20025;-57
2022/06/16 07:25:48;;;;;;;4.30;2.78;;;;;;;;;;5054619;28;20021;-57
2022/06/16 07:28:14;;;;;;;3.95;2.65;;;;;;;;;;5048363;28;20028;-57
2022/06/16 07:30:41;;;;;;;5.78;2.53;;;;;;;;;;5049095;28;20033;-61
2022/06/16 07:33:07;;;;;;;13.73;3.17;;;;;;;;;;5045960;28;20111;-56
2022/06/16 07:35:34;;;;;;;3.08;2.30;;;;;;;;;;5049308;28;20082;-64
2022/06/16 07:38:00;;;;;;;4.13;2.55;;;;;;;;;;5046087;28;21912;-62
2022/06/16 07:40:26;;;;;;;5.13;2.58;;;;;;;;;;5059031;28;20024;-57
2022/06/16 07:42:57;;;;;;;4.72;2.38;;;;;;;;;;5048109;28;20025;-56
2022/06/16 07:45:27;;;;;;;6.40;2.30;;;;;;;;;;5058328;28;20049;-62
2022/06/16 07:47:55;;;;;;;3.15;2.33;;;;;;;;;;5046143;28;20445;-60
2022/06/16 07:50:21;;;;;;;5.50;2.92;;;;;;;;;;5041950;28;20025;-58
2022/06/16 07:52:47;;;;;;;2.83;2.08;;;;;;;;;;5037970;28;20036;-59
2022/06/16 07:55:13;;;;;;;7.22;2.25;;;;;;;;;;5036625;28;20649;-60
2022/06/16 07:57:43;;;;;;;5.75;2.45;;;;;;;;;;5045109;28;20040;-59
2022/06/16 08:00:11;;;;;;;3.72;2.28;;;;;;;;;;5049822;28;20039;-68
2022/06/16 08:02:37;;;;;;;2.80;2.15;;;;;;;;;;5037100;28;20115;-57
2022/06/16 08:05:04;;;;;;;4.30;2.20;;;;;;;;;;5049436;28;20108;-59
2022/06/16 08:07:30;;;;;;;6.40;2.50;;;;;;;;;;5049777;28;20049;-59
2022/06/16 08:09:56;;;;;;;6.32;2.38;;;;;;;;;;5047826;28;20098;-59
2022/06/16 08:12:24;;;;;;;7.18;2.88;;;;;;;;;;5039168;28;20033;-58
2022/06/16 08:14:50;;;;;;;5.13;2.28;;;;;;;;;;5042838;28;20095;-54
2022/06/16 08:17:22;;;;;;;3.00;2.45;;;;;;;;;;5045742;28;20029;-63
2022/06/16 08:19:48;;;;;;;5.20;2.70;;;;;;;;;;5044022;28;20025;-55
2022/06/16 08:22:14;;;;;;;3.40;2.30;;;;;;;;;;5036103;28;20066;-57
2022/06/16 08:24:40;;;;;;;4.15;2.30;;;;;;;;;;5043164;28;20496;-58
2022/06/16 08:27:06;;;;;;;3.90;2.30;;;;;;;;;;5046715;28;20025;-57
2022/06/16 08:29:33;;;;;;;4.03;2.42;;;;;;;;;;5048416;28;20032;-59
2022/06/16 08:31:59;;;;;;;4.80;2.22;;;;;;;;;;5047888;28;20036;-57
2022/06/16 08:34:25;;;;;;;3.58;2.40;;;;;;;;;;5052169;28;20527;-60
2022/06/16 08:36:51;;;;;;;5.68;2.22;;;;;;;;;;5051483;28;20032;-53
2022/06/16 08:39:17;;;;;;;6.07;2.67;;;;;;;;;;5053338;28;20029;-59
2022/06/16 08:41:51;;;;;;;6.90;2.40;;;;;;;;;;5050595;28;20029;-60
2022/06/16 08:44:35;;;;;;;2.95;1.90;;;;;;;;;;5053658;28;20029;-58
2022/06/16 08:47:14;;;;;;;5.78;2.30;;;;;;;;;;5053124;28;20402;-57
2022/06/16 08:49:42;;;;;;;2.72;2.10;;;;;;;;;;5050049;28;20029;-58
2022/06/16 08:52:08;;;;;;;3.67;2.20;;;;;;;;;;5046388;28;20052;-51
2022/06/16 08:54:40;;;;;;;4.35;2.20;;;;;;;;;;5040982;28;20083;-55
2022/06/16 08:57:10;;;;;;;6.40;2.35;;;;;;;;;;5052594;28;20029;-48
2022/06/16 08:59:53;;;;;;;2.85;2.13;;;;;;;;;;5049783;28;20035;-49
2022/06/16 09:02:38;;;;;;;4.30;2.35;;;;;;;;;;5033733;28;20029;-54
2022/06/16 09:05:22;;;;;;;2.08;1.88;;;;;;;;;;5039200;28;20494;-48
2022/06/16 09:07:51;;;;;;;9.00;2.30;;;;;;;;;;5047251;28;20486;-56
2022/06/16 09:10:25;;;;;;;3.35;2.70;;;;;;;;;;5039509;28;20028;-54
2022/06/16 09:13:14;;;;;;;4.95;1.98;;;;;;;;;;5053096;28;20029;-55
2022/06/16 09:15:58;;;;;;;5.60;2.40;;;;;;;;;;5050283;28;20037;-49
2022/06/16 09:18:24;;;;;;;3.03;2.10;;;;;;;;;;5053553;28;20033;-51
2022/06/16 09:20:59;;;;;;;2.70;2.22;;;;;;;;;;5053258;28;20078;-54
2022/06/16 09:23:34;;;;;;;4.70;1.98;;;;;;;;;;5048180;28;20029;-56
2022/06/16 09:26:19;;;;;;;4.35;2.20;;;;;;;;;;5054203;28;20074;-48
2022/06/16 09:28:51;;;;;;;5.10;2.63;;;;;;;;;;5050617;28;20390;-54
2022/06/16 09:31:21;;;;;;;3.95;2.20;;;;;;;;;;5051872;28;20029;-52
2022/06/16 09:33:59;;;;;;;5.47;2.30;;;;;;;;;;5040108;28;20040;-49
2022/06/16 09:36:28;;;;;;;3.38;2.00;;;;;;;;;;5038529;28;20036;-50
2022/06/16 09:38:57;;;;;;;2.55;2.13;;;;;;;;;;5045914;28;20037;-56
2022/06/16 09:44:20;;;;;;;4.80;2.97;;;;;;;;;;5049033;28;20887;-57
2022/06/16 09:46:48;;;;;;;2.58;2.17;;;;;;;;;;5052245;28;20048;-50
2022/06/16 09:49:18;;;;;;;4.25;2.33;;;;;;;;;;5045114;28;20036;-53
2022/06/16 09:51:44;;;;;;;17.58;2.47;;;;;;;;;;5049283;28;20390;-57
2022/06/16 09:54:12;;;;;;;3.22;2.50;;;;;;;;;;5041584;28;20036;-52
2022/06/16 09:56:47;;;;;;;3.40;2.35;;;;;;;;;;5044529;28;20033;-50
2022/06/16 09:59:19;;;;;;;5.18;2.38;;;;;;;;;;5044069;28;20840;-55
2022/06/16 10:02:11;;;;;;;3.83;2.85;;;;;;;;;;5045068;28;20033;-49
2022/06/16 10:04:37;;;;;;;3.03;1.98;;;;;;;;;;5040864;28;20041;-52
2022/06/16 10:07:10;;;;;;;4.35;3.08;;;;;;;;;;5051292;28;20036;-55
2022/06/16 10:09:42;;;;;;;4.57;2.90;;;;;;;;;;5051767;28;20075;-58
2022/06/16 10:12:20;;;;;;;4.28;2.15;;;;;;;;;;5045869;28;20076;-53
2022/06/16 10:15:00;;;;;;;4.28;2.38;;;;;;;;;;5051984;28;20481;-57
2022/06/16 10:17:26;;;;;;;8.32;2.10;;;;;;;;;;5036853;28;20041;-53
2022/06/16 10:19:54;;;;;;;3.63;2.33;;;;;;;;;;5052044;28;20032;-51
2022/06/16 10:22:22;;;;;;;3.53;2.10;;;;;;;;;;5041765;28;20029;-51
2022/06/16 10:25:18;;;;;;;3.75;2.80;;;;;;;;;;5041208;28;20102;-55
2022/06/16 10:27:44;;;;;;;5.53;1.90;;;;;;;;;;5042482;28;20049;-49
2022/06/16 10:30:18;;;;;;;7.25;2.38;;;;;;;;;;5033217;28;20525;-57
2022/06/16 10:32:46;;;;;;;6.40;2.70;;;;;;;;;;5048776;28;20060;-52
2022/06/16 10:35:19;;;;;;;4.70;2.70;;;;;;;;;;5043293;28;20106;-53
2022/06/16 10:37:47;;;;;;;5.22;2.10;;;;;;;;;;5051437;28;20033;-54
2022/06/16 10:40:15;;;;;;;5.32;2.03;;;;;;;;;;5049733;28;20488;-51
2022/06/16 10:42:44;;;;;;;5.38;2.50;;;;;;;;;;5038479;28;20474;-52
2022/06/16 10:45:27;;;;;;;5.60;2.50;;;;;;;;;;5036669;28;20041;-51
2022/06/16 10:48:00;;;;;;;3.08;2.03;;;;;;;;;;5043365;28;20104;-52
2022/06/16 10:50:37;;;;;;;3.65;2.22;;;;;;;;;;5044369;28;20033;-52
2022/06/16 10:53:23;;;;;;;3.35;2.58;;;;;;;;;;5038913;28;20056;-50
2022/06/16 10:55:50;;;;;;;4.60;1.90;;;;;;;;;;5051937;28;20064;-50
2022/06/16 10:58:16;;;;;;;7.50;2.30;;;;;;;;;;5035273;28;20080;-52
2022/06/16 11:00:42;;;;;;;4.78;1.92;;;;;;;;;;5032542;28;20426;-52
2022/06/16 11:03:11;;;;;;;3.33;1.92;;;;;;;;;;5031260;28;20021;-54
2022/06/16 11:05:45;;;;;;;2.40;1.85;;;;;;;;;;5038242;28;20021;-53
2022/06/16 11:08:12;;;;;;;2.40;2.05;;;;;;;;;;5049763;28;20591;-53
2022/06/16 11:10:40;;;;;;;6.03;2.50;;;;;;;;;;5051520;28;20074;-53
2022/06/16 11:13:07;;;;;;;4.97;2.40;;;;;;;;;;5049889;28;20440;-48
2022/06/16 11:15:39;;;;;;;7.65;2.45;;;;;;;;;;5048856;28;20044;-56
2022/06/16 11:18:08;;;;;;;2.47;1.73;;;;;;;;;;5030562;28;20112;-52
2022/06/16 11:20:34;;;;;;;4.00;1.90;;;;;;;;;;5030931;28;20429;-57
2022/06/16 11:23:00;;;;;;;4.20;2.08;;;;;;;;;;5033634;28;20436;-55
2022/06/16 11:25:35;;;;;;;9.65;2.47;;;;;;;;;;5051028;28;20029;-53
2022/06/16 11:28:02;;;;;;;5.03;1.90;;;;;;;;;;5059573;28;20026;-55
2022/06/16 11:30:34;;;;;;;8.57;2.20;;;;;;;;;;5048485;28;21740;-56
2022/06/16 11:33:00;;;;;;;6.85;2.00;;;;;;;;;;5040582;28;20359;-58
2022/06/16 11:35:46;;;;;;;4.20;1.75;;;;;;;;;;5037831;28;20052;-52
2022/06/16 11:38:32;;;;;;;2.40;2.03;;;;;;;;;;5030596;28;20029;-52
2022/06/16 11:41:02;;;;;;;3.22;1.95;;;;;;;;;;5047410;28;20028;-57
2022/06/16 11:43:40;;;;;;;2.67;1.92;;;;;;;;;;5046370;28;20060;-49
2022/06/16 11:46:15;;;;;;;4.85;1.85;;;;;;;;;;5045539;28;20493;-57
2022/06/16 11:48:53;;;;;;;3.55;1.92;;;;;;;;;;5046855;28;20102;-55
2022/06/16 11:51:25;;;;;;;5.88;2.38;;;;;;;;;;5038333;28;20481;-57
2022/06/16 11:53:51;;;;;;;4.15;1.83;;;;;;;;;;5045127;28;20033;-56
2022/06/16 11:56:24;;;;;;;3.65;2.03;;;;;;;;;;5048140;28;20025;-55
2022/06/16 11:59:09;;;;;;;3.50;1.83;;;;;;;;;;5047570;28;20599;-54
2022/06/16 12:01:44;;;;;;;3.08;2.33;;;;;;;;;;5041095;28;20048;-56
2022/06/16 12:04:10;;;;;;;2.90;2.30;;;;;;;;;;5039657;28;20067;-47
2022/06/16 12:06:55;;;;;;;2.40;2.00;;;;;;;;;;5047868;28;21802;-53
2022/06/16 12:09:36;;;;;;;1.67;1.40;;;;;;;;;;5046671;28;20035;-49
2022/06/16 12:12:02;;;;;;;3.70;2.47;;;;;;;;;;5036033;28;20036;-57
2022/06/16 12:14:38;;;;;;;2.65;1.75;;;;;;;;;;5050125;28;20033;-50
2022/06/16 12:17:18;;;;;;;2.67;2.00;;;;;;;;;;5046064;28;20029;-54
2022/06/16 12:19:58;;;;;;;2.83;2.28;;;;;;;;;;5049573;28;20033;-54
2022/06/16 12:22:27;;;;;;;3.00;1.70;;;;;;;;;;5049304;28;20055;-51
2022/06/16 12:25:15;;;;;;;2.15;1.67;;;;;;;;;;5037075;28;20056;-48
2022/06/16 12:27:55;;;;;;;2.45;1.60;;;;;;;;;;5051640;28;20028;-56
2022/06/16 12:30:24;;;;;;;16.88;2.33;;;;;;;;;;5038333;28;20033;-50
2022/06/16 12:33:10;;;;;;;3.25;1.80;;;;;;;;;;5038235;28;20041;-55
2022/06/16 12:35:41;;;;;;;3.05;1.70;;;;;;;;;;5043509;28;20104;-55
2022/06/16 12:38:13;;;;;;;3.05;1.88;;;;;;;;;;5043709;28;20025;-49
2022/06/16 12:40:43;;;;;;;5.82;1.73;;;;;;;;;;5042521;28;20063;-55
2022/06/16 12:43:16;;;;;;;3.88;2.22;;;;;;;;;;5029916;28;20445;-49
2022/06/16 12:45:44;;;;;;;3.60;1.75;;;;;;;;;;5040705;28;20049;-55
2022/06/16 12:48:17;;;;;;;2.42;1.83;;;;;;;;;;5029216;28;20124;-55
2022/06/16 12:50:47;;;;;;;2.58;1.70;;;;;;;;;;5037057;28;20090;-56
2022/06/16 12:53:23;;;;;;;3.17;1.80;;;;;;;;;;5049719;28;20592;-58
2022/06/16 12:55:59;;;;;;;3.63;1.80;;;;;;;;;;5043750;28;20029;-49
2022/06/16 12:58:31;;;;;;;2.72;1.95;;;;;;;;;;5031178;28;20049;-52
2022/06/16 13:00:57;;;;;;;;;;;;;;;;;;5029561;28;20478;-53
2022/06/16 13:03:32;;;;;;;2.95;1.92;;;;;;;;;;5029492;28;19960;-51
2022/06/16 13:05:58;;;;;;;2.78;1.70;;;;;;;;;;5028922;28;20391;-55
2022/06/16 13:08:26;;;;;;;3.97;1.90;;;;;;;;;;5030344;28;20445;-54
2022/06/16 13:10:59;;;;;;;2.83;1.90;;;;;;;;;;5041208;28;20035;-56
2022/06/16 13:13:28;;;;;;;3.92;2.00;;;;;;;;;;5049801;28;20051;-57
2022/06/16 13:15:55;;;;;;;3.20;1.70;;;;;;;;;;5053160;28;20025;-50
2022/06/16 13:18:24;;;;;;;2.65;1.70;;;;;;;;;;5033092;28;20037;-49
2022/06/16 13:20:54;;;;;;;3.33;1.60;;;;;;;;;;5033577;28;20424;-54
2022/06/16 13:23:31;;;;;;;2.33;1.52;;;;;;;;;;5035232;28;20041;-57
2022/06/16 13:26:17;;;;;;;2.17;1.80;;;;;;;;;;5048768;28;20041;-57
2022/06/16 13:29:17;;;;;;;2.08;1.63;;;;;;;;;;5048438;28;20056;-55
2022/06/16 13:31:43;;;;;;;3.95;2.15;;;;;;;;;;5040542;28;20044;-57
2022/06/16 13:34:09;;;;;;;4.82;1.90;;;;;;;;;;5051973;28;20025;-53
2022/06/16 13:36:35;;;;;;;2.72;1.70;;;;;;;;;;5048148;28;20098;-54
2022/06/16 13:39:03;;;;;;;5.00;1.80;;;;;;;;;;5052320;28;20478;-55
2022/06/16 13:41:31;;;;;;;3.83;1.90;;;;;;;;;;5048546;28;20112;-55
2022/06/16 13:44:07;;;;;;;4.05;1.80;;;;;;;;;;5047127;28;20025;-53
2022/06/16 13:46:52;;;;;;;3.33;1.83;;;;;;;;;;5053037;28;20625;-55
2022/06/16 13:49:31;;;;;;;3.20;1.70;;;;;;;;;;5039561;28;20493;-55
2022/06/16 13:52:15;;;;;;;4.35;1.73;;;;;;;;;;5048655;28;20033;-52
2022/06/16 13:54:43;;;;;;;7.78;1.85;;;;;;;;;;5052790;28;20025;-53
2022/06/16 13:57:19;;;;;;;11.77;3.42;;;;;;;;;;5041555;28;20102;-51
2022/06/16 13:59:46;;;;;;;19.50;5.05;;;;;;;;;;5050634;28;20116;-52
2022/06/16 14:02:13;;;;;;;48.47;10.65;;;;;;;;;;5049291;28;20025;-53
2022/06/16 14:05:03;;;;;;;40.83;9.73;;;;;;;;;;5050818;28;20032;-53
2022/06/16 14:07:58;;;;;;;28.35;7.03;;;;;;;;;;5050991;28;20037;-52
2022/06/16 14:10:27;;;;;;;38.85;8.77;;;;;;;;;;5046969;28;20041;-54
2022/06/16 14:13:17;;;;;;;26.13;6.82;;;;;;;;;;5049026;28;20470;-52
2022/06/16 14:16:01;;;;;;;31.45;7.28;;;;;;;;;;5046651;28;20102;-54
2022/06/16 14:18:48;;;;;;;21.38;6.97;;;;;;;;;;5052664;28;20398;-51
2022/06/16 14:21:15;;;;;;;22.45;6.38;;;;;;;;;;5053282;28;20085;-54
2022/06/16 14:23:44;;;;;;;22.95;5.97;;;;;;;;;;5045304;28;20032;-52
2022/06/16 14:26:20;;;;;;;18.05;4.57;;;;;;;;;;5050029;28;20025;-58
2022/06/16 14:28:48;;;;;;;12.38;4.90;;;;;;;;;;5047171;28;20099;-52
2022/06/16 14:31:21;;;;;;;17.35;4.50;;;;;;;;;;5052364;28;20509;-52
2022/06/16 14:33:56;;;;;;;12.40;4.55;;;;;;;;;;5045588;28;20127;-53
2022/06/16 14:36:31;;;;;;;11.48;3.72;;;;;;;;;;5047612;28;20374;-53
2022/06/16 14:39:06;;;;;;;13.55;4.55;;;;;;;;;;5051152;28;20540;-51
2022/06/16 14:41:37;;;;;;;12.55;3.63;;;;;;;;;;5050859;28;20549;-50
2022/06/16 14:44:21;;;;;;;12.40;3.45;;;;;;;;;;5051482;28;20028;-53
2022/06/16 14:46:55;;;;;;;9.70;3.95;;;;;;;;;;5051349;28;20051;-51
2022/06/16 14:49:41;;;;;;;12.25;3.45;;;;;;;;;;5052466;28;20053;-51
2022/06/16 14:52:08;;;;;;;8.00;2.97;;;;;;;;;;5046629;28;20059;-50
2022/06/16 14:54:38;;;;;;;10.85;3.88;;;;;;;;;;5052091;28;20056;-53
2022/06/16 14:57:06;;;;;;;10.05;3.40;;;;;;;;;;5048445;28;20010;-53
2022/06/16 14:59:34;;;;;;;5.88;2.97;;;;;;;;;;5051780;28;20466;-53
2022/06/16 15:02:02;;;;;;;7.38;2.95;;;;;;;;;;5051243;28;20021;-51
2022/06/16 15:04:31;;;;;;;6.03;2.25;;;;;;;;;;5051719;28;20029;-54
2022/06/16 15:06:57;;;;;;;7.10;3.13;;;;;;;;;;5050484;28;20067;-53
2022/06/16 15:09:28;;;;;;;6.90;3.22;;;;;;;;;;5046824;28;20060;-53
2022/06/16 15:11:57;;;;;;;7.30;2.75;;;;;;;;;;5059645;28;20355;-50
2022/06/16 15:14:24;;;;;;;5.10;2.80;;;;;;;;;;5057814;28;20025;-54
2022/06/16 15:19:40;;;;;;;5.82;3.13;;;;;;;;;;5052685;28;20036;-50